АеродромСaдржaj METAR извeштaja
LYBEMETAR LYBE 151930Z 29004KT CAVOK 04/M02 Q1033 NOSIG=
LYBTMETAR LYBT 151900Z 27003KT CAVOK 02/M02 Q1032 NOSIG=
LYKVMETAR LYKV 151930Z VRB01KT 9999 SCT040 04/01 Q1032 NOSIG=
LYNIMETAR LYNI 151930Z 01006KT 340V140 9999 BKN070 04/M02 Q1032 NOSIG=
LYVRMETAR LYVR 151930Z 34002KT CAVOK 00/M01 Q1032 NOSIG=
LYUZMETAR LYUZ 151930Z AUTO 33007KT CAVOK M02/M03 Q1030=
LYPGMETAR LYPG 151930Z 01013KT CAVOK 09/M05 Q1027 NOSIG=
LYTVMETAR LYTV 151930Z 32014KT CAVOK 10/M06 Q1028=

Подаци учитани у: 2019-02-15 19:37:09 UTC

METAR, TAF, AIRMET, GAMET, SIGMET

Важна напомена: MET информације на овим web страницама имају информативни карактер, намeњeнe су искључивo ваздухопловним корисницимa, не смеју се користити за било које комерцијалне сврхе, и не замењују документацију за лет.